Tracy, Iowa
Current Conditions -  °F | °C
As of 4:55 AM on Wednesday 26 Nov 2014 (Local Time) from KPEA Reporting Station
Scattered Clouds Scattered Clouds  
Wind Chill: 20°   Ceiling: Unl
Heat Index: 28°   Visibility: 10mi
Dew Point: 22°   Wind: 9mph
Humidity: 76%   Direction: 120°ESE
Pressure: 29.94"   Gusts: NA
Location:  41.28°N, 92.88°W
Report Text: KPEA 261055Z AUTO 12008KT 10SM SCT011 M02/M06 A2994 RMK AO2 T10201057
Loading
Personal Weather Stations






























Interactive Weather Map New forecast layout! Learn more

10-Day Weather Forecast

Advertisements
Track Severe Weather on mobile